Time;durP1;ratioP1;P1;durP2;ratioP2;P2;SDS_P1;SDS_P2;PMS_P1;PMS_P2;Temp;Humidity;BMP_temperature;BMP_pressure;BME280_temperature;BME280_humidity;BME280_pressure;Samples;Min_cycle;Max_cycle;Signal;HPM_P1;HPM_P2
2023/12/01 00:00:09;;;;;;;2.97;1.60;;;16.70;74.60;;;;;;345519;28;1106;-57
2023/12/01 00:00:20;;;;;;;3.38;1.77;;;16.70;74.60;;;;;;345445;28;1019;-58
2023/12/01 00:00:30;;;;;;;3.45;1.70;;;16.70;74.60;;;;;;345487;28;1095;-58
2023/12/01 00:00:41;;;;;;;4.05;1.88;;;16.70;74.60;;;;;;345493;28;1063;-57
2023/12/01 00:00:52;;;;;;;4.15;1.90;;;16.70;74.70;;;;;;345482;28;1025;-57
2023/12/01 00:01:03;;;;;;;4.13;1.77;;;16.70;74.60;;;;;;345415;28;1050;-58
2023/12/01 00:01:14;;;;;;;3.35;1.60;;;16.70;74.70;;;;;;345392;28;1256;-58
2023/12/01 00:01:24;;;;;;;2.83;1.50;;;16.70;74.70;;;;;;345561;28;1004;-57
2023/12/01 00:01:35;;;;;;;2.53;1.50;;;16.70;74.70;;;;;;345594;28;964;-59
2023/12/01 00:01:46;;;;;;;3.08;1.60;;;16.70;74.70;;;;;;345488;28;992;-57
2023/12/01 00:01:57;;;;;;;3.95;1.70;;;16.70;74.70;;;;;;345496;28;1020;-60
2023/12/01 00:02:10;;;;;;;3.60;1.65;;;16.70;74.70;;;;;;345470;28;1056;-59
2023/12/01 00:02:21;;;;;;;3.50;1.88;;;16.70;74.80;;;;;;345501;28;1848;-59
2023/12/01 00:02:32;;;;;;;3.30;1.90;;;16.70;74.80;;;;;;345476;28;972;-57
2023/12/01 00:02:43;;;;;;;3.00;1.70;;;16.70;74.90;;;;;;345476;28;1051;-59
2023/12/01 00:02:53;;;;;;;2.30;1.50;;;16.70;74.90;;;;;;345443;28;1257;-57
2023/12/01 00:03:04;;;;;;;2.47;1.50;;;16.70;74.90;;;;;;345440;28;1137;-58
2023/12/01 00:03:15;;;;;;;2.83;1.60;;;16.70;74.90;;;;;;345488;28;988;-57
2023/12/01 00:03:26;;;;;;;3.70;1.63;;;16.70;74.90;;;;;;345494;28;1095;-58
2023/12/01 00:03:37;;;;;;;3.60;1.60;;;16.70;74.90;;;;;;345514;28;1534;-57
2023/12/01 00:03:48;;;;;;;3.50;1.52;;;16.70;74.90;;;;;;345471;28;1072;-59
2023/12/01 00:03:59;;;;;;;3.03;1.60;;;16.70;74.90;;;;;;345481;28;966;-56
2023/12/01 00:04:10;;;;;;;2.70;1.52;;;16.70;74.90;;;;;;345439;28;1016;-59
2023/12/01 00:04:20;;;;;;;2.80;1.60;;;16.70;74.90;;;;;;345529;28;1123;-58
2023/12/01 00:04:31;;;;;;;3.80;1.67;;;16.70;74.80;;;;;;345534;28;873;-58
2023/12/01 00:04:42;;;;;;;4.23;1.83;;;16.70;74.80;;;;;;345515;28;1044;-58
2023/12/01 00:04:52;;;;;;;4.07;2.00;;;16.70;74.90;;;;;;345465;28;1165;-57
2023/12/01 00:05:04;;;;;;;3.90;2.00;;;16.70;74.90;;;;;;345524;28;873;-58
2023/12/01 00:05:14;;;;;;;3.80;2.05;;;16.70;75.00;;;;;;345517;28;992;-57
2023/12/01 00:05:25;;;;;;;3.60;1.90;;;16.70;75.00;;;;;;345511;28;1007;-57
2023/12/01 00:05:36;;;;;;;3.13;2.08;;;16.70;75.00;;;;;;345590;28;876;-58
2023/12/01 00:05:47;;;;;;;3.17;2.10;;;16.70;75.10;;;;;;345392;28;1092;-58
2023/12/01 00:05:58;;;;;;;3.42;2.22;;;16.70;75.10;;;;;;345460;28;1103;-58
2023/12/01 00:06:09;;;;;;;4.00;2.27;;;16.70;75.10;;;;;;345572;28;872;-58
2023/12/01 00:06:19;;;;;;;4.32;2.30;;;16.70;75.10;;;;;;345477;28;1106;-57
2023/12/01 00:06:31;;;;;;;4.43;2.47;;;16.70;75.20;;;;;;345537;28;1018;-57
2023/12/01 00:06:41;;;;;;;4.68;2.55;;;16.70;75.20;;;;;;345414;28;1050;-57
2023/12/01 00:06:52;;;;;;;4.43;2.53;;;16.70;75.20;;;;;;345511;28;860;-58
2023/12/01 00:07:04;;;;;;;3.78;2.30;;;16.70;75.20;;;;;;345572;28;879;-58
2023/12/01 00:07:15;;;;;;;3.25;2.20;;;16.70;75.20;;;;;;345545;28;1185;-58
2023/12/01 00:07:26;;;;;;;3.20;2.10;;;16.70;75.20;;;;;;345432;28;2319;-58
2023/12/01 00:07:37;;;;;;;3.25;2.10;;;16.70;75.10;;;;;;345371;28;1081;-58
2023/12/01 00:07:48;;;;;;;3.25;2.13;;;16.70;75.10;;;;;;345550;28;1091;-56
2023/12/01 00:07:59;;;;;;;3.30;2.17;;;16.70;75.10;;;;;;345467;28;1024;-58
2023/12/01 00:08:09;;;;;;;3.25;2.25;;;16.70;75.10;;;;;;345459;28;2487;-56
2023/12/01 00:08:20;;;;;;;3.65;2.35;;;16.70;75.10;;;;;;345502;28;1601;-59
2023/12/01 00:08:31;;;;;;;4.10;2.50;;;16.70;75.10;;;;;;345389;28;1050;-58
2023/12/01 00:08:42;;;;;;;5.13;2.78;;;16.70;75.20;;;;;;345526;28;980;-58
2023/12/01 00:08:52;;;;;;;5.28;3.03;;;16.70;75.20;;;;;;345506;28;813;-58
2023/12/01 00:09:03;;;;;;;5.00;3.00;;;16.70;75.20;;;;;;345498;28;853;-58
2023/12/01 00:09:14;;;;;;;4.80;2.97;;;16.70;75.20;;;;;;345535;28;829;-58
2023/12/01 00:09:25;;;;;;;5.07;3.00;;;16.70;75.20;;;;;;345448;28;848;-58
2023/12/01 00:09:35;;;;;;;4.75;3.15;;;16.70;75.20;;;;;;345475;28;1095;-58
2023/12/01 00:09:46;;;;;;;4.60;3.17;;;16.70;75.10;;;;;;345521;28;1026;-57
2023/12/01 00:09:57;;;;;;;4.85;3.30;;;16.70;75.00;;;;;;345447;28;1793;-57
2023/12/01 00:10:14;;;;;;;4.97;3.17;;;16.80;74.90;;;;;;345478;28;975;-58
2023/12/01 00:10:25;;;;;;;5.10;3.02;;;16.70;74.90;;;;;;345409;28;1011;-57
2023/12/01 00:10:35;;;;;;;4.80;3.20;;;16.80;74.80;;;;;;345519;28;1086;-58
2023/12/01 00:10:46;;;;;;;4.53;3.20;;;16.80;74.80;;;;;;345488;28;1143;-58
2023/12/01 00:10:57;;;;;;;5.30;3.40;;;16.70;74.80;;;;;;345524;28;930;-58
2023/12/01 00:11:08;;;;;;;5.75;3.63;;;16.70;74.90;;;;;;345379;28;1922;-59
2023/12/01 00:11:19;;;;;;;5.90;3.60;;;16.70;74.90;;;;;;345444;28;1074;-59
2023/12/01 00:11:30;;;;;;;5.85;3.58;;;16.70;74.90;;;;;;345470;28;972;-58
2023/12/01 00:11:40;;;;;;;5.63;3.63;;;16.70;74.90;;;;;;345572;28;1118;-58
2023/12/01 00:11:51;;;;;;;4.93;3.57;;;16.70;74.90;;;;;;345365;28;1266;-58
2023/12/01 00:12:02;;;;;;;5.00;3.70;;;16.80;74.90;;;;;;345514;28;895;-57
2023/12/01 00:12:13;;;;;;;4.75;3.50;;;16.70;74.90;;;;;;345509;28;1003;-57
2023/12/01 00:12:24;;;;;;;5.47;3.60;;;16.80;74.90;;;;;;345478;28;1747;-58
2023/12/01 00:12:35;;;;;;;5.72;3.65;;;16.80;74.90;;;;;;345463;28;1019;-57
2023/12/01 00:12:45;;;;;;;6.03;3.83;;;16.70;74.90;;;;;;345536;28;979;-58
2023/12/01 00:12:56;;;;;;;5.85;4.00;;;16.80;74.80;;;;;;345446;28;1146;-58
2023/12/01 00:13:07;;;;;;;5.80;4.03;;;16.80;74.90;;;;;;345417;28;1297;-57
2023/12/01 00:13:18;;;;;;;7.40;4.07;;;16.80;74.90;;;;;;345456;28;1462;-58
2023/12/01 00:13:28;;;;;;;6.88;3.95;;;16.80;74.90;;;;;;345544;28;809;-60
2023/12/01 00:13:39;;;;;;;7.13;3.88;;;16.80;74.90;;;;;;345399;28;972;-58
2023/12/01 00:13:50;;;;;;;5.47;4.07;;;16.80;74.80;;;;;;345491;28;1012;-58
2023/12/01 00:14:01;;;;;;;5.90;4.30;;;16.80;74.80;;;;;;345437;28;1038;-58
2023/12/01 00:14:11;;;;;;;5.85;4.43;;;16.80;74.70;;;;;;345395;28;2718;-58
2023/12/01 00:14:22;;;;;;;6.05;4.40;;;16.80;74.80;;;;;;345495;28;1027;-61
2023/12/01 00:14:33;;;;;;;6.30;4.57;;;16.80;74.70;;;;;;345526;28;1098;-58
2023/12/01 00:14:44;;;;;;;6.15;4.45;;;16.80;74.80;;;;;;345355;28;1093;-59
2023/12/01 00:14:55;;;;;;;6.38;4.75;;;16.80;74.80;;;;;;345518;28;2213;-59
2023/12/01 00:15:06;;;;;;;6.28;4.97;;;16.80;74.70;;;;;;345425;28;1424;-59
2023/12/01 00:15:17;;;;;;;6.60;5.40;;;16.90;74.60;;;;;;345454;28;1024;-58
2023/12/01 00:15:27;;;;;;;6.50;5.50;;;16.80;74.40;;;;;;345432;28;1404;-58
2023/12/01 00:15:38;;;;;;;6.73;5.97;;;16.90;74.40;;;;;;345518;28;1055;-57
2023/12/01 00:15:49;;;;;;;7.55;6.35;;;16.90;74.40;;;;;;345451;28;1126;-57
2023/12/01 00:16:00;;;;;;;7.47;6.30;;;16.80;74.40;;;;;;345544;28;877;-58
2023/12/01 00:16:11;;;;;;;7.63;6.03;;;16.80;74.40;;;;;;345524;28;952;-57
2023/12/01 00:16:22;;;;;;;7.30;5.85;;;16.80;74.40;;;;;;345466;28;920;-58
2023/12/01 00:16:32;;;;;;;7.43;6.00;;;16.80;74.40;;;;;;345552;28;1000;-57
2023/12/01 00:16:43;;;;;;;7.93;6.40;;;16.80;74.50;;;;;;345566;28;876;-58
2023/12/01 00:16:54;;;;;;;8.23;6.87;;;16.80;74.50;;;;;;345467;28;975;-57
2023/12/01 00:17:05;;;;;;;8.90;7.47;;;16.80;74.50;;;;;;345407;28;1431;-60
2023/12/01 00:17:15;;;;;;;9.15;7.72;;;16.80;74.40;;;;;;345474;28;1110;-57
2023/12/01 00:17:26;;;;;;;9.65;8.02;;;16.80;74.40;;;;;;345389;28;1031;-57
2023/12/01 00:17:37;;;;;;;10.63;8.30;;;16.80;74.40;;;;;;345486;28;2303;-57
2023/12/01 00:17:48;;;;;;;10.30;8.00;;;16.70;74.50;;;;;;345490;28;1777;-57
2023/12/01 00:17:59;;;;;;;9.43;7.70;;;16.80;74.50;;;;;;345371;28;1008;-58
2023/12/01 00:18:09;;;;;;;9.05;7.70;;;16.80;74.60;;;;;;345511;28;1027;-57
2023/12/01 00:18:20;;;;;;;9.68;8.13;;;16.70;74.50;;;;;;345588;28;861;-59
2023/12/01 00:18:31;;;;;;;10.27;8.48;;;16.70;74.60;;;;;;345450;28;1074;-58
2023/12/01 00:18:42;;;;;;;10.10;8.57;;;16.70;74.50;;;;;;345462;28;1024;-58
2023/12/01 00:18:53;;;;;;;10.43;8.75;;;16.70;74.50;;;;;;345546;28;980;-58
2023/12/01 00:19:04;;;;;;;11.60;9.27;;;16.70;74.50;;;;;;345463;28;942;-58
2023/12/01 00:19:15;;;;;;;12.43;9.80;;;16.70;74.40;;;;;;345483;28;1070;-57
2023/12/01 00:19:25;;;;;;;11.80;10.00;;;16.70;74.50;;;;;;345495;28;912;-57
2023/12/01 00:19:40;;;;;;;11.48;9.85;;;16.70;74.60;;;;;;345535;28;956;-58
2023/12/01 00:19:50;;;;;;;12.52;10.48;;;16.70;74.70;;;;;;345463;28;1038;-57
2023/12/01 00:20:01;;;;;;;13.07;10.65;;;16.70;74.70;;;;;;345504;28;853;-58
2023/12/01 00:20:12;;;;;;;12.95;10.35;;;16.70;74.70;;;;;;345476;28;1028;-57
2023/12/01 00:20:23;;;;;;;13.45;10.15;;;16.70;74.80;;;;;;345447;28;1104;-57
2023/12/01 00:20:33;;;;;;;13.07;9.93;;;16.70;74.80;;;;;;345514;28;1027;-57
2023/12/01 00:20:44;;;;;;;12.05;9.75;;;16.70;74.80;;;;;;345389;28;1016;-57
2023/12/01 00:20:55;;;;;;;11.55;9.88;;;16.70;74.80;;;;;;345515;28;983;-57
2023/12/01 00:21:06;;;;;;;11.80;10.13;;;16.70;74.80;;;;;;345463;28;888;-57
2023/12/01 00:21:17;;;;;;;12.50;10.45;;;16.70;74.90;;;;;;345523;28;841;-57
2023/12/01 00:21:27;;;;;;;11.55;10.15;;;16.70;74.90;;;;;;345432;28;1170;-56
2023/12/01 00:21:38;;;;;;;11.17;9.67;;;16.70;74.90;;;;;;345420;28;1007;-58
2023/12/01 00:21:49;;;;;;;10.63;9.13;;;16.70;75.00;;;;;;345465;28;1016;-58
2023/12/01 00:22:00;;;;;;;11.00;9.50;;;16.70;75.00;;;;;;345503;28;1132;-57
2023/12/01 00:22:10;;;;;;;11.05;9.93;;;16.70;75.00;;;;;;345539;28;870;-57
2023/12/01 00:22:21;;;;;;;11.98;10.70;;;16.70;74.90;;;;;;345442;28;1932;-58
2023/12/01 00:22:32;;;;;;;12.07;10.77;;;16.70;74.90;;;;;;345349;28;1180;-58
2023/12/01 00:22:43;;;;;;;12.70;11.15;;;16.70;74.80;;;;;;345536;28;960;-58
2023/12/01 00:22:54;;;;;;;13.02;10.85;;;16.70;74.70;;;;;;345389;28;1500;-58
2023/12/01 00:23:04;;;;;;;12.95;10.85;;;16.70;74.80;;;;;;345507;28;836;-57
2023/12/01 00:23:15;;;;;;;12.57;10.82;;;16.70;74.90;;;;;;345577;28;943;-58
2023/12/01 00:23:26;;;;;;;12.98;11.05;;;16.60;75.00;;;;;;345420;28;1825;-58
2023/12/01 00:23:37;;;;;;;13.67;11.23;;;16.60;75.00;;;;;;345565;28;955;-57
2023/12/01 00:23:47;;;;;;;13.65;11.13;;;16.60;75.00;;;;;;345549;28;837;-58
2023/12/01 00:23:58;;;;;;;13.77;11.05;;;16.60;75.00;;;;;;345678;28;1938;-57
2023/12/01 00:24:09;;;;;;;14.70;11.43;;;16.60;75.00;;;;;;345805;28;1042;-57
2023/12/01 00:24:20;;;;;;;14.60;11.45;;;16.60;75.00;;;;;;345710;28;1086;-57
2023/12/01 00:24:30;;;;;;;14.43;11.83;;;16.60;75.00;;;;;;345760;28;1019;-58
2023/12/01 00:24:41;;;;;;;13.20;11.25;;;16.60;75.00;;;;;;345756;28;794;-57
2023/12/01 00:24:52;;;;;;;13.40;11.07;;;16.60;75.10;;;;;;345771;28;834;-58
2023/12/01 00:25:03;;;;;;;12.57;10.90;;;16.50;75.10;;;;;;345728;28;1023;-57
2023/12/01 00:25:14;;;;;;;12.68;10.75;;;16.60;75.20;;;;;;345741;28;1947;-58
2023/12/01 00:25:25;;;;;;;11.57;10.25;;;16.60;75.20;;;;;;345718;28;1560;-58
2023/12/01 00:25:35;;;;;;;11.40;10.20;;;16.60;75.30;;;;;;345809;28;1098;-57
2023/12/01 00:25:47;;;;;;;13.13;10.57;;;16.60;75.30;;;;;;345802;28;1019;-58
2023/12/01 00:25:58;;;;;;;14.82;11.05;;;16.60;75.40;;;;;;345809;28;952;-57
2023/12/01 00:26:09;;;;;;;16.05;11.50;;;16.60;75.40;;;;;;345693;28;1031;-58
2023/12/01 00:26:20;;;;;;;13.98;11.60;;;16.60;75.40;;;;;;345703;28;1134;-58
2023/12/01 00:26:30;;;;;;;13.75;11.40;;;16.60;75.30;;;;;;345756;28;1039;-57
2023/12/01 00:26:41;;;;;;;13.10;11.30;;;16.60;75.30;;;;;;345733;28;1135;-57
2023/12/01 00:26:52;;;;;;;13.48;11.40;;;16.70;75.30;;;;;;345799;28;1031;-58
2023/12/01 00:27:03;;;;;;;14.32;11.70;;;16.70;75.30;;;;;;345730;28;912;-57
2023/12/01 00:27:14;;;;;;;14.82;12.20;;;16.70;75.20;;;;;;345744;28;1047;-58
2023/12/01 00:27:24;;;;;;;14.55;12.10;;;16.60;75.20;;;;;;345734;28;2045;-58
2023/12/01 00:27:35;;;;;;;14.80;11.93;;;16.60;75.20;;;;;;345725;28;976;-57
2023/12/01 00:27:46;;;;;;;15.00;11.83;;;16.60;75.20;;;;;;345759;28;1127;-59
2023/12/01 00:27:58;;;;;;;14.27;11.73;;;16.70;75.10;;;;;;345703;28;996;-57
2023/12/01 00:28:08;;;;;;;13.27;11.88;;;16.70;75.10;;;;;;345834;28;980;-56
2023/12/01 00:28:19;;;;;;;12.75;11.45;;;16.70;75.20;;;;;;345788;28;818;-58
2023/12/01 00:28:30;;;;;;;12.32;11.02;;;16.70;75.20;;;;;;345714;28;1165;-58
2023/12/01 00:28:41;;;;;;;12.20;10.90;;;16.70;75.10;;;;;;345789;28;1032;-58
2023/12/01 00:28:51;;;;;;;12.50;11.18;;;16.70;75.10;;;;;;345663;28;1448;-58
2023/12/01 00:29:02;;;;;;;13.00;11.55;;;16.70;75.20;;;;;;345666;28;1382;-58
2023/12/01 00:29:13;;;;;;;13.23;11.82;;;16.70;75.10;;;;;;345758;28;896;-57
2023/12/01 00:29:24;;;;;;;12.55;11.25;;;16.70;75.20;;;;;;345726;28;1015;-57
2023/12/01 00:29:34;;;;;;;12.13;10.73;;;16.70;75.10;;;;;;345744;28;1072;-58
2023/12/01 00:29:45;;;;;;;12.27;10.52;;;16.70;75.20;;;;;;345746;28;898;-57
2023/12/01 00:29:56;;;;;;;13.20;11.13;;;16.70;75.10;;;;;;345825;28;860;-58
2023/12/01 00:30:07;;;;;;;14.07;11.63;;;16.70;75.10;;;;;;345695;28;1154;-61
2023/12/01 00:30:18;;;;;;;14.27;12.15;;;16.70;75.10;;;;;;345698;28;1694;-58
2023/12/01 00:30:30;;;;;;;13.70;12.00;;;16.70;75.00;;;;;;345779;28;1626;-57
2023/12/01 00:30:41;;;;;;;14.10;12.15;;;16.70;75.00;;;;;;345873;28;872;-58
2023/12/01 00:30:52;;;;;;;13.38;11.88;;;16.70;75.00;;;;;;345734;28;888;-56
2023/12/01 00:31:02;;;;;;;14.43;11.95;;;16.70;75.00;;;;;;345698;28;1907;-59
2023/12/01 00:31:13;;;;;;;15.83;12.57;;;16.70;74.90;;;;;;345823;28;809;-58
2023/12/01 00:31:24;;;;;;;17.60;13.07;;;16.70;74.80;;;;;;345650;28;1297;-57
2023/12/01 00:31:35;;;;;;;16.83;13.18;;;16.70;74.80;;;;;;345859;28;880;-58
2023/12/01 00:31:46;;;;;;;15.02;12.50;;;16.70;74.80;;;;;;345733;28;1017;-58
2023/12/01 00:31:57;;;;;;;14.90;12.00;;;16.70;74.80;;;;;;345640;28;1054;-57
2023/12/01 00:32:08;;;;;;;14.90;11.90;;;16.70;74.90;;;;;;345764;28;836;-58
2023/12/01 00:32:18;;;;;;;16.10;12.40;;;16.70;74.90;;;;;;345703;28;1398;-58
2023/12/01 00:32:29;;;;;;;16.90;13.05;;;16.70;74.90;;;;;;345700;28;996;-58
2023/12/01 00:32:41;;;;;;;17.80;12.93;;;16.70;74.90;;;;;;345774;28;810;-58
2023/12/01 00:32:51;;;;;;;17.17;12.27;;;16.70;74.90;;;;;;345798;28;829;-57
2023/12/01 00:33:03;;;;;;;16.08;11.90;;;16.70;74.90;;;;;;345626;28;1095;-58
2023/12/01 00:33:14;;;;;;;14.70;11.98;;;16.70;74.90;;;;;;345775;28;1031;-57
2023/12/01 00:33:25;;;;;;;14.52;11.98;;;16.70;75.00;;;;;;345682;28;1434;-58
2023/12/01 00:33:36;;;;;;;13.95;12.05;;;16.70;75.00;;;;;;345624;28;1436;-57
2023/12/01 00:33:46;;;;;;;15.20;12.30;;;16.70;75.00;;;;;;345789;28;891;-57
2023/12/01 00:33:57;;;;;;;15.77;12.27;;;16.70;75.00;;;;;;345804;28;1271;-61
2023/12/01 00:34:08;;;;;;;16.83;12.43;;;16.70;75.00;;;;;;345686;28;1424;-59
2023/12/01 00:34:19;;;;;;;15.30;12.20;;;16.70;75.00;;;;;;345657;28;1305;-56
2023/12/01 00:34:29;;;;;;;14.65;12.30;;;16.70;75.00;;;;;;345753;28;972;-57
2023/12/01 00:34:40;;;;;;;15.18;12.38;;;16.70;74.90;;;;;;345810;28;1019;-56
2023/12/01 00:34:51;;;;;;;15.00;12.35;;;16.70;74.80;;;;;;345792;28;1027;-56
2023/12/01 00:35:02;;;;;;;16.17;12.50;;;16.70;74.80;;;;;;345665;28;987;-57
2023/12/01 00:35:12;;;;;;;17.60;12.63;;;16.70;74.80;;;;;;345775;28;933;-57
2023/12/01 00:35:23;;;;;;;17.65;12.48;;;16.70;74.80;;;;;;345675;28;1277;-57
2023/12/01 00:35:34;;;;;;;17.77;12.18;;;16.70;74.70;;;;;;345750;28;1313;-56
2023/12/01 00:35:45;;;;;;;15.80;12.13;;;16.70;74.70;;;;;;345748;28;1019;-57
2023/12/01 00:35:55;;;;;;;17.30;12.53;;;16.70;74.80;;;;;;345625;28;1630;-58
2023/12/01 00:36:07;;;;;;;16.63;12.63;;;16.70;74.80;;;;;;345764;28;1094;-57
2023/12/01 00:36:17;;;;;;;16.30;12.52;;;16.70;74.70;;;;;;345761;28;1494;-58
2023/12/01 00:36:28;;;;;;;14.77;12.33;;;16.70;74.90;;;;;;345736;28;913;-58
2023/12/01 00:36:39;;;;;;;15.50;12.63;;;16.70;75.00;;;;;;345623;28;1142;-58
2023/12/01 00:36:50;;;;;;;14.98;12.60;;;16.70;75.00;;;;;;345725;28;1008;-56
2023/12/01 00:37:01;;;;;;;14.27;12.05;;;16.70;75.00;;;;;;345838;28;1047;-57
2023/12/01 00:37:16;;;;;;;14.05;11.88;;;16.70;75.00;;;;;;345729;28;2031;-57
2023/12/01 00:37:27;;;;;;;16.00;12.45;;;16.70;74.80;;;;;;345618;28;1205;-58
2023/12/01 00:37:37;;;;;;;15.60;12.60;;;16.60;75.00;;;;;;345770;28;1008;-57
2023/12/01 00:37:48;;;;;;;15.57;12.70;;;16.60;75.10;;;;;;345745;28;1055;-58
2023/12/01 00:37:59;;;;;;;15.27;12.68;;;16.60;75.20;;;;;;345770;28;866;-57
2023/12/01 00:38:10;;;;;;;15.80;12.90;;;16.60;75.20;;;;;;345771;28;1297;-59
2023/12/01 00:38:20;;;;;;;15.50;12.55;;;16.60;75.20;;;;;;345654;28;919;-57
2023/12/01 00:38:32;;;;;;;16.00;12.80;;;16.60;75.20;;;;;;345725;28;1036;-58
2023/12/01 00:38:43;;;;;;;16.05;12.63;;;16.60;75.30;;;;;;345719;28;882;-56
2023/12/01 00:38:53;;;;;;;15.80;12.30;;;16.60;75.30;;;;;;345783;28;991;-57
2023/12/01 00:39:06;;;;;;;14.55;12.25;;;16.60;75.30;;;;;;345778;28;1011;-58
2023/12/01 00:39:17;;;;;;;15.60;12.55;;;16.60;75.30;;;;;;345700;28;1077;-58
2023/12/01 00:39:28;;;;;;;16.38;12.85;;;16.60;75.40;;;;;;345764;28;976;-57
2023/12/01 00:39:39;;;;;;;16.73;12.98;;;16.60;75.40;;;;;;345743;28;1878;-58
2023/12/01 00:39:50;;;;;;;16.17;12.60;;;16.60;75.50;;;;;;345696;28;999;-56
2023/12/01 00:40:00;;;;;;;16.67;12.90;;;16.60;75.50;;;;;;345730;28;994;-58
2023/12/01 00:40:12;;;;;;;15.85;12.90;;;16.60;75.40;;;;;;345693;28;1275;-58
2023/12/01 00:40:23;;;;;;;16.63;13.27;;;16.60;75.50;;;;;;345644;28;1615;-58
2023/12/01 00:40:33;;;;;;;16.10;13.02;;;16.60;75.50;;;;;;345695;28;1438;-58
2023/12/01 00:40:44;;;;;;;15.67;12.70;;;16.70;75.50;;;;;;345705;28;1022;-57
2023/12/01 00:40:55;;;;;;;15.82;12.50;;;16.60;75.50;;;;;;345643;28;1004;-56
2023/12/01 00:41:07;;;;;;;15.43;12.50;;;16.60;75.50;;;;;;345835;28;836;-57
2023/12/01 00:41:18;;;;;;;15.70;12.93;;;16.70;75.50;;;;;;345730;28;1194;-57
2023/12/01 00:41:28;;;;;;;16.52;13.10;;;16.70;75.50;;;;;;345640;28;1050;-58
2023/12/01 00:41:39;;;;;;;17.10;13.03;;;16.70;75.50;;;;;;345747;28;806;-56
2023/12/01 00:41:50;;;;;;;16.20;12.75;;;16.70;75.50;;;;;;345660;28;972;-57
2023/12/01 00:42:00;;;;;;;14.82;12.52;;;16.70;75.50;;;;;;345628;28;1104;-57
2023/12/01 00:42:13;;;;;;;15.80;12.77;;;16.70;75.50;;;;;;345765;28;814;-57
2023/12/01 00:42:25;;;;;;;17.33;13.15;;;16.70;75.50;;;;;;345769;28;865;-57
2023/12/01 00:42:36;;;;;;;17.70;13.55;;;16.60;75.50;;;;;;345725;28;1532;-57
2023/12/01 00:42:47;;;;;;;16.25;13.95;;;16.70;75.50;;;;;;345762;28;1043;-57
2023/12/01 00:42:58;;;;;;;16.13;13.77;;;16.70;75.40;;;;;;345730;28;1007;-57
2023/12/01 00:43:09;;;;;;;15.95;13.52;;;16.70;75.40;;;;;;345609;28;1151;-57
2023/12/01 00:43:20;;;;;;;15.15;12.48;;;16.70;75.40;;;;;;345766;28;1024;-57
2023/12/01 00:43:31;;;;;;;14.93;12.47;;;16.70;75.40;;;;;;345713;28;1924;-58
2023/12/01 00:43:41;;;;;;;14.70;12.27;;;16.70;75.40;;;;;;345741;28;996;-58
2023/12/01 00:43:52;;;;;;;15.05;12.65;;;16.70;75.50;;;;;;345759;28;1135;-57
2023/12/01 00:44:03;;;;;;;15.02;12.82;;;16.70;75.50;;;;;;345744;28;861;-57
2023/12/01 00:44:14;;;;;;;16.48;12.95;;;16.70;75.50;;;;;;345662;28;1054;-58
2023/12/01 00:44:25;;;;;;;15.95;12.80;;;16.70;75.50;;;;;;345733;28;1012;-57
2023/12/01 00:44:36;;;;;;;15.52;13.20;;;16.70;75.40;;;;;;345731;28;1017;-57
2023/12/01 00:44:46;;;;;;;15.23;13.00;;;16.70;75.50;;;;;;345689;28;1157;-56
2023/12/01 00:44:57;;;;;;;15.00;12.95;;;16.70;75.50;;;;;;345683;28;1039;-57
2023/12/01 00:45:08;;;;;;;14.57;12.70;;;16.70;75.50;;;;;;345824;28;918;-56
2023/12/01 00:45:19;;;;;;;14.73;12.65;;;16.60;75.50;;;;;;345704;28;1536;-57
2023/12/01 00:45:30;;;;;;;15.15;12.75;;;16.70;75.50;;;;;;345776;28;1034;-56
2023/12/01 00:45:40;;;;;;;15.50;12.70;;;16.70;75.50;;;;;;345756;28;865;-57
2023/12/01 00:45:51;;;;;;;15.20;12.63;;;16.70;75.40;;;;;;345679;28;1088;-57
2023/12/01 00:46:03;;;;;;;14.43;12.33;;;16.70;75.40;;;;;;345741;28;1038;-58
2023/12/01 00:46:14;;;;;;;14.07;12.45;;;16.70;75.40;;;;;;345776;28;974;-56
2023/12/01 00:46:24;;;;;;;14.50;12.43;;;16.70;75.40;;;;;;345627;28;1087;-57
2023/12/01 00:46:35;;;;;;;14.67;12.30;;;16.70;75.40;;;;;;345734;28;1019;-58
2023/12/01 00:46:46;;;;;;;14.38;12.20;;;16.70;75.40;;;;;;345677;28;1083;-57
2023/12/01 00:46:57;;;;;;;15.48;12.43;;;16.70;75.30;;;;;;345591;28;1245;-56
2023/12/01 00:47:08;;;;;;;14.93;12.10;;;16.70;75.30;;;;;;345770;28;939;-56
2023/12/01 00:47:19;;;;;;;15.23;12.15;;;16.70;75.30;;;;;;345744;28;1283;-57
2023/12/01 00:47:30;;;;;;;15.40;12.30;;;16.70;75.30;;;;;;345607;28;1434;-57
2023/12/01 00:47:40;;;;;;;15.43;12.23;;;16.70;75.30;;;;;;345806;28;805;-57
2023/12/01 00:47:52;;;;;;;14.13;11.82;;;16.70;75.20;;;;;;345744;28;996;-59
2023/12/01 00:48:03;;;;;;;12.90;11.43;;;16.70;75.20;;;;;;345654;28;1028;-57
2023/12/01 00:48:14;;;;;;;12.80;11.50;;;16.70;75.30;;;;;;345746;28;1322;-58
2023/12/01 00:48:25;;;;;;;13.10;11.70;;;16.70;75.30;;;;;;345718;28;1063;-57
2023/12/01 00:48:35;;;;;;;13.50;12.02;;;16.70;75.30;;;;;;345682;28;927;-57
2023/12/01 00:48:46;;;;;;;15.02;12.60;;;16.70;75.30;;;;;;345774;28;1042;-57
2023/12/01 00:48:57;;;;;;;14.27;12.23;;;16.70;75.30;;;;;;345791;28;904;-57
2023/12/01 00:49:08;;;;;;;14.70;12.10;;;16.70;75.30;;;;;;345650;28;997;-57
2023/12/01 00:49:19;;;;;;;14.63;12.03;;;16.70;75.30;;;;;;345779;28;983;-57
2023/12/01 00:49:31;;;;;;;15.23;12.40;;;16.70;75.20;;;;;;345784;28;1129;-58
2023/12/01 00:49:42;;;;;;;15.45;12.52;;;16.70;75.30;;;;;;345758;28;1074;-56
2023/12/01 00:49:53;;;;;;;15.32;12.73;;;16.70;75.20;;;;;;345660;28;1785;-57
2023/12/01 00:50:04;;;;;;;14.82;12.77;;;16.70;75.30;;;;;;345754;28;1190;-57
2023/12/01 00:50:15;;;;;;;14.60;12.93;;;16.70;75.30;;;;;;345770;28;861;-57
2023/12/01 00:50:26;;;;;;;14.70;13.02;;;16.70;75.30;;;;;;345729;28;984;-55
2023/12/01 00:50:36;;;;;;;14.80;12.77;;;16.70;75.30;;;;;;345595;28;1097;-57
2023/12/01 00:50:47;;;;;;;16.23;13.30;;;16.70;75.30;;;;;;345724;28;826;-57
2023/12/01 00:50:58;;;;;;;16.13;13.02;;;16.70;75.40;;;;;;345781;28;877;-57
2023/12/01 00:51:16;;;;;;;16.13;13.23;;;16.70;75.40;;;;;;345666;28;1968;-56
2023/12/01 00:51:27;;;;;;;15.65;13.25;;;16.70;75.50;;;;;;345670;28;844;-58
2023/12/01 00:51:43;;;;;;;17.33;13.63;;;16.70;75.50;;;;;;345728;28;1022;-56
2023/12/01 00:51:54;;;;;;;16.60;13.02;;;16.70;75.50;;;;;;345721;28;1071;-56
2023/12/01 00:52:05;;;;;;;14.70;12.63;;;16.70;75.60;;;;;;345732;28;1020;-56
2023/12/01 00:52:16;;;;;;;15.45;13.10;;;16.70;75.50;;;;;;345754;28;1015;-56
2023/12/01 00:52:27;;;;;;;15.68;13.60;;;16.70;75.60;;;;;;345750;28;1012;-56
2023/12/01 00:52:37;;;;;;;15.65;13.18;;;16.70;75.60;;;;;;345700;28;1395;-56
2023/12/01 00:52:49;;;;;;;14.02;12.25;;;16.70;75.50;;;;;;345634;28;1017;-57
2023/12/01 00:52:59;;;;;;;13.02;11.40;;;16.70;75.50;;;;;;345803;28;904;-58
2023/12/01 00:53:10;;;;;;;12.18;10.90;;;16.70;75.50;;;;;;345729;28;968;-56
2023/12/01 00:53:21;;;;;;;12.77;11.43;;;16.70;75.50;;;;;;345776;28;892;-59
2023/12/01 00:53:32;;;;;;;12.80;11.50;;;16.70;75.50;;;;;;345608;28;1013;-57
2023/12/01 00:53:43;;;;;;;12.73;11.43;;;16.70;75.50;;;;;;345753;28;1111;-56
2023/12/01 00:53:54;;;;;;;12.68;11.32;;;16.70;75.50;;;;;;345752;28;1003;-56
2023/12/01 00:54:05;;;;;;;13.27;11.67;;;16.70;75.50;;;;;;345758;28;840;-57
2023/12/01 00:54:15;;;;;;;13.45;11.48;;;16.70;75.50;;;;;;345741;28;1000;-57
2023/12/01 00:54:26;;;;;;;13.77;11.07;;;16.70;75.60;;;;;;345603;28;1643;-56
2023/12/01 00:54:37;;;;;;;14.38;11.10;;;16.70;75.60;;;;;;345744;28;916;-55
2023/12/01 00:54:48;;;;;;;14.27;11.55;;;16.70;75.60;;;;;;345692;28;906;-56
2023/12/01 00:54:58;;;;;;;14.10;11.37;;;16.70;75.60;;;;;;345641;28;1929;-56
2023/12/01 00:55:09;;;;;;;13.68;11.43;;;16.70;75.60;;;;;;345685;28;880;-56
2023/12/01 00:55:20;;;;;;;15.02;11.75;;;16.70;75.60;;;;;;345696;28;989;-56
2023/12/01 00:55:31;;;;;;;14.50;11.63;;;16.70;75.60;;;;;;345748;28;797;-57
2023/12/01 00:55:41;;;;;;;13.98;11.65;;;16.70;75.60;;;;;;345644;28;1154;-56
2023/12/01 00:55:52;;;;;;;12.90;11.27;;;16.70;75.60;;;;;;345711;28;1020;-57
2023/12/01 00:56:03;;;;;;;14.17;11.93;;;16.70;75.60;;;;;;345750;28;877;-56
2023/12/01 00:56:15;;;;;;;14.80;12.02;;;16.70;75.60;;;;;;345751;28;1064;-57
2023/12/01 00:56:25;;;;;;;14.00;11.95;;;16.70;75.60;;;;;;345683;28;987;-58
2023/12/01 00:56:36;;;;;;;13.25;11.85;;;16.70;75.70;;;;;;345731;28;880;-57
2023/12/01 00:56:47;;;;;;;13.20;11.80;;;16.70;75.70;;;;;;345655;28;1107;-57
2023/12/01 00:56:58;;;;;;;13.98;12.13;;;16.70;75.70;;;;;;345745;28;1198;-56
2023/12/01 00:57:08;;;;;;;14.60;12.30;;;16.70;75.70;;;;;;345641;28;1303;-57
2023/12/01 00:57:19;;;;;;;15.23;12.63;;;16.70;75.80;;;;;;345724;28;1051;-56
2023/12/01 00:57:31;;;;;;;15.70;12.77;;;16.70;75.80;;;;;;345616;28;1305;-57
2023/12/01 00:57:41;;;;;;;16.52;13.35;;;16.70;75.80;;;;;;345701;28;989;-57
2023/12/01 00:57:53;;;;;;;16.00;13.07;;;16.70;75.80;;;;;;345762;28;885;-56